ADDS METAR Data INFO
IDs: Format: Raw Decoded Include TAF

Data at: 0150 UTC 17 Oct 2017

KGEU 170047Z 00000KT 10SM SCT200 34/00 A2998
KGEU 162357Z 00000KT 10SM SCT200 36/00 A2999
KGEU 162150Z 00000KT 10SM SCT200 36/00 A3001
KGEU 162050Z 07003 10SM SCT200 36/00 A3002
KGEU 161957Z 04006 10SM FEW200 36/00 A3005
KGEU 161847Z 07010KT 10SM FEW200 34/00 A3010
KGEU 161747Z 07008KT 10SM FEW200 33/00 A3012
KGEU 161647Z 00000KT 10SM FEW200 29/M01 A3014
KGEU 161547Z 01005KT 10SM FEW200 27/M01 A3014
KGEU 161447Z 00000KT 10SM FEW200 22/M02 A3013
KGEU 161347Z 00000KT 10SM SKC 19/M02 A3012
KGEU 161247Z 00000KT 10SM SKC 18/M03 A3010 RMK FIRST
KGEU 160155Z 22004KT 10SM FEW200 30/M05 A3004 RMK LAST
KGEU 160047Z VRB03KT 10SM FEW200 34/M11 A3002
KGEU 152350Z 00000KT 10SM FEW200 35/M10 A3002
KGEU 152253Z 00000KT 10SM FEW200 36/M10 A3003
KGEU 152150Z 00000KT 10SM FEW200 35/M10 A3005
KGEU 152047Z 00000KT 10SM FEW200 34/M11 A3007
KGEU 151948Z 00000KT 10SM FEW200 33/M10 A3010
KGEU 151847Z 00000KT 10SM FEW200 31/M09 A3013
KGEU 151747Z 00000KT 10SM FEW200 29/M07 A3015
KGEU 151647Z 00000KT 10SM FEW200 28/M03 A3016
KGEU 151547Z 00000KT 10SM FEW200 24/M01 A3015
KGEU 151447Z 00000KT 10SM FEW200 22/M03 A3013